Time;durP1;ratioP1;P1;durP2;ratioP2;P2;SDS_P1;SDS_P2;PMS_P1;PMS_P2;Temp;Humidity;BMP_temperature;BMP_pressure;BME280_temperature;BME280_humidity;BME280_pressure;Samples;Min_cycle;Max_cycle;Signal;HPM_P1;HPM_P2
2021/01/12 00:00:40;;;;;;;14.83;8.93;;;;;;;1.29;60.65;100237.56;5042978;28;20055;-72
2021/01/12 00:03:05;;;;;;;14.07;8.80;;;;;;;1.33;60.66;100235.06;5040044;28;20495;-71
2021/01/12 00:05:31;;;;;;;14.83;9.17;;;;;;;1.33;60.51;100233.31;5039792;28;20408;-72
2021/01/12 00:07:56;;;;;;;14.17;8.50;;;;;;;1.32;60.96;100226.38;5040831;28;20492;-72
2021/01/12 00:10:23;;;;;;;14.60;9.00;;;;;;;1.29;60.92;100221.97;5042921;28;20174;-71
2021/01/12 00:12:50;;;;;;;14.13;9.50;;;;;;;1.39;61.13;100224.78;5042120;28;20044;-72
2021/01/12 00:15:15;;;;;;;14.77;9.10;;;;;;;1.34;61.41;100216.91;5039324;28;20077;-72
2021/01/12 00:17:41;;;;;;;17.20;9.37;;;;;;;1.39;61.53;100211.78;5039353;28;20048;-72
2021/01/12 00:20:08;;;;;;;14.30;9.20;;;;;;;1.43;61.52;100205.84;5040850;28;20040;-71
2021/01/12 00:22:33;;;;;;;15.37;9.80;;;;;;;1.42;61.33;100204.97;5041195;28;20547;-72
2021/01/12 00:24:58;;;;;;;13.90;8.87;;;;;;;1.42;61.63;100207.56;5051518;28;20136;-72
2021/01/12 00:27:24;;;;;;;15.37;8.93;;;;;;;1.43;61.87;100198.91;5043425;28;20057;-72
2021/01/12 00:29:50;;;;;;;17.37;9.03;;;;;;;1.44;61.85;100205.00;5043800;28;20484;-72
2021/01/12 00:32:34;;;;;;;15.17;9.43;;;;;;;1.43;61.86;100198.06;5046494;28;20083;-72
2021/01/12 00:34:59;;;;;;;16.37;8.73;;;;;;;1.41;62.16;100197.13;5044903;28;20044;-71
2021/01/12 00:37:26;;;;;;;17.83;9.73;;;;;;;1.42;62.25;100196.31;5043179;28;20037;-72
2021/01/12 00:39:52;;;;;;;16.00;9.83;;;;;;;1.40;62.65;100187.56;5043910;28;20040;-71
2021/01/12 00:42:19;;;;;;;14.10;9.23;;;;;;;1.43;62.09;100187.66;5046415;28;20116;-72
2021/01/12 00:44:44;;;;;;;15.47;9.37;;;;;;;1.47;62.16;100179.09;5045164;28;20131;-71
2021/01/12 00:47:10;;;;;;;15.67;9.77;;;;;;;1.47;62.36;100171.28;5043333;28;20495;-72
2021/01/12 00:49:35;;;;;;;14.23;9.37;;;;;;;1.51;62.23;100167.91;5043066;28;20408;-71
2021/01/12 00:52:01;;;;;;;15.57;9.37;;;;;;;1.48;62.63;100162.63;5044815;28;20120;-70
2021/01/12 00:54:26;;;;;;;15.83;9.70;;;;;;;1.57;62.15;100161.97;5046169;28;20041;-72
2021/01/12 00:56:55;;;;;;;14.30;9.33;;;;;;;1.51;62.41;100144.50;5044293;28;20041;-71
2021/01/12 00:59:21;;;;;;;16.57;10.47;;;;;;;1.52;62.34;100160.16;5042846;28;20037;-72
2021/01/12 01:01:47;;;;;;;15.70;9.87;;;;;;;1.54;62.83;100149.78;5042791;28;20037;-71
2021/01/12 01:04:14;;;;;;;13.20;8.97;;;;;;;1.60;62.87;100155.13;5046141;28;20392;-72
2021/01/12 01:06:40;;;;;;;18.30;10.37;;;;;;;1.58;62.59;100151.63;5046156;28;20048;-72
2021/01/12 01:09:05;;;;;;;13.60;8.67;;;;;;;1.61;62.85;100148.22;5043447;28;20036;-72
2021/01/12 01:11:31;;;;;;;15.07;9.97;;;;;;;1.69;63.37;100144.06;5042661;28;20037;-72
2021/01/12 01:13:57;;;;;;;15.00;9.87;;;;;;;1.70;63.00;100125.91;5043548;28;20480;-71
2021/01/12 01:16:32;;;;;;;14.73;9.57;;;;;;;1.63;63.01;100129.19;5045932;28;20037;-72
2021/01/12 01:18:58;;;;;;;16.43;10.50;;;;;;;1.66;63.30;100126.66;5044270;28;20044;-72
2021/01/12 01:21:23;;;;;;;14.53;9.77;;;;;;;1.70;63.20;100120.69;5042535;28;20045;-72
2021/01/12 01:23:48;;;;;;;15.03;9.27;;;;;;;1.77;63.38;100118.22;5042535;28;20045;-72
2021/01/12 01:26:16;;;;;;;14.83;9.23;;;;;;;1.76;63.42;100122.56;5045840;28;20047;-72
2021/01/12 01:28:42;;;;;;;15.90;10.15;;;;;;;1.80;63.18;100115.69;5045729;28;20083;-72
2021/01/12 01:31:07;;;;;;;16.07;9.37;;;;;;;1.81;62.92;100107.03;5041634;28;20443;-72
2021/01/12 01:33:32;;;;;;;15.57;9.35;;;;;;;1.84;63.66;100104.50;5041702;28;20132;-71
2021/01/12 01:35:58;;;;;;;16.03;9.97;;;;;;;1.75;63.53;100111.25;5043709;28;20044;-72
2021/01/12 01:38:23;;;;;;;16.23;9.80;;;;;;;1.84;63.40;100096.72;5045448;28;20127;-71
2021/01/12 01:40:48;;;;;;;17.35;9.02;;;;;;;1.85;63.56;100107.13;5045225;28;20127;-71
2021/01/12 01:43:19;;;;;;;14.67;10.03;;;;;;;1.85;63.71;100094.13;5041786;28;20056;-72
2021/01/12 01:45:45;;;;;;;15.55;9.85;;;;;;;1.82;63.94;100078.44;5041929;28;20056;-71
2021/01/12 01:48:10;;;;;;;16.42;10.23;;;;;;;1.86;63.98;100080.28;5045238;28;20033;-72
2021/01/12 01:50:36;;;;;;;16.23;10.80;;;;;;;1.90;64.23;100076.00;5045360;28;20032;-72
2021/01/12 01:53:01;;;;;;;16.50;11.05;;;;;;;1.94;64.06;100067.44;5042839;28;20029;-71
2021/01/12 01:55:26;;;;;;;18.03;10.90;;;;;;;1.98;64.35;100070.13;5041794;28;20421;-72
2021/01/12 01:57:52;;;;;;;17.17;9.87;;;;;;;2.03;63.90;100067.63;5041158;28;20052;-72
2021/01/12 02:00:19;;;;;;;14.47;9.50;;;;;;;2.01;63.92;100058.03;5045209;28;20064;-71
2021/01/12 02:03:22;;;;;;;16.13;10.30;;;;;;;2.09;63.65;100059.06;5043551;28;20522;-72
2021/01/12 02:05:58;;;;;;;16.63;10.73;;;;;;;2.04;63.95;100061.56;5036934;28;20048;-72
2021/01/12 02:08:28;;;;;;;18.10;11.25;;;;;;;2.10;64.30;100053.88;5031399;28;20025;-73
2021/01/12 02:10:59;;;;;;;15.52;10.30;;;;;;;2.11;64.29;100041.75;5034825;28;20088;-71
2021/01/12 02:13:28;;;;;;;17.30;10.77;;;;;;;2.08;64.10;100034.75;5033709;28;20061;-72
2021/01/12 02:15:57;;;;;;;17.52;11.32;;;;;;;2.11;64.25;100040.00;5041231;28;20036;-72
2021/01/12 02:18:22;;;;;;;16.67;10.38;;;;;;;2.12;64.66;100026.16;5034887;28;20025;-72
2021/01/12 02:20:49;;;;;;;18.02;10.45;;;;;;;2.12;64.38;100023.56;5041626;28;20037;-72
2021/01/12 02:23:20;;;;;;;17.27;10.48;;;;;;;2.17;64.73;100018.44;5044489;28;20029;-72
2021/01/12 02:25:47;;;;;;;17.13;11.00;;;;;;;2.23;64.43;100017.66;5044533;28;20597;-72
2021/01/12 02:28:17;;;;;;;17.75;11.50;;;;;;;2.19;64.45;100016.75;5033988;28;20488;-72
2021/01/12 02:30:42;;;;;;;18.95;11.77;;;;;;;2.21;64.35;100006.38;5042572;28;20439;-71
2021/01/12 02:33:07;;;;;;;16.83;10.45;;;;;;;2.25;64.31;100000.34;5043664;28;20032;-72
2021/01/12 02:35:36;;;;;;;17.40;11.25;;;;;;;2.27;64.47;99988.25;5044453;28;20045;-72
2021/01/12 02:38:03;;;;;;;18.25;11.82;;;;;;;2.28;64.25;99985.69;5042167;28;20044;-72
2021/01/12 02:40:28;;;;;;;17.48;10.85;;;;;;;2.29;64.44;99976.13;5040994;28;20623;-72
2021/01/12 02:42:54;;;;;;;18.13;11.23;;;;;;;2.26;64.72;99976.97;5041743;28;20060;-72
2021/01/12 02:45:19;;;;;;;19.27;11.48;;;;;;;2.27;64.49;99970.00;5042968;28;20045;-72
2021/01/12 02:47:45;;;;;;;16.42;10.30;;;;;;;2.24;64.88;99969.97;5043699;28;20036;-72
2021/01/12 02:50:12;;;;;;;14.90;9.80;;;;;;;2.26;64.96;99968.28;5040898;28;20037;-71
2021/01/12 02:52:39;;;;;;;18.10;11.30;;;;;;;2.32;64.80;99970.97;5040343;28;20038;-71
2021/01/12 02:55:05;;;;;;;19.27;12.27;;;;;;;2.29;64.97;99958.78;5043048;28;20037;-72
2021/01/12 02:57:30;;;;;;;18.02;11.05;;;;;;;2.28;64.62;99951.84;5043998;28;20037;-72
2021/01/12 02:59:55;;;;;;;20.48;12.27;;;;;;;2.27;64.43;99943.97;5042702;28;20067;-72
2021/01/12 03:02:21;;;;;;;18.02;11.15;;;;;;;2.26;65.00;99952.66;5040404;28;20025;-71
2021/01/12 03:04:46;;;;;;;16.77;11.07;;;;;;;2.33;65.11;99938.88;5040096;28;20377;-72
2021/01/12 03:07:11;;;;;;;16.27;10.40;;;;;;;2.31;64.22;99944.06;5032868;28;20509;-72
2021/01/12 03:09:37;;;;;;;21.35;12.45;;;;;;;2.28;64.62;99933.59;5039104;28;20041;-72
2021/01/12 03:12:02;;;;;;;18.73;11.63;;;;;;;2.30;64.78;99933.63;5042364;28;20033;-71
2021/01/12 03:14:28;;;;;;;17.48;10.50;;;;;;;2.29;64.90;99929.28;5043551;28;20037;-71
2021/01/12 03:16:53;;;;;;;20.80;11.57;;;;;;;2.33;64.90;99915.44;5042751;28;20041;-72
2021/01/12 03:19:18;;;;;;;20.75;12.07;;;;;;;2.34;64.76;99910.25;5040236;28;20042;-72
2021/01/12 03:21:44;;;;;;;19.55;11.65;;;;;;;2.36;65.17;99910.31;5038946;28;20049;-72
2021/01/12 03:24:10;;;;;;;16.50;10.63;;;;;;;2.39;65.05;99910.34;5042939;28;20036;-72
2021/01/12 03:26:35;;;;;;;19.02;11.32;;;;;;;2.28;65.65;99907.56;5043491;28;20037;-72
2021/01/12 03:29:01;;;;;;;17.05;10.73;;;;;;;2.21;65.80;99904.81;5041592;28;20079;-72
2021/01/12 03:31:26;;;;;;;18.00;10.50;;;;;;;2.28;65.89;99888.44;5040044;28;20044;-72
2021/01/12 03:33:51;;;;;;;18.35;10.77;;;;;;;2.23;66.98;99892.69;5040318;28;20345;-72
2021/01/12 03:36:17;;;;;;;17.98;11.25;;;;;;;2.19;67.64;99903.06;5043334;28;20088;-72
2021/01/12 03:38:43;;;;;;;21.00;12.00;;;;;;;2.13;68.84;99897.75;5043261;28;20518;-72
2021/01/12 03:41:08;;;;;;;16.92;11.15;;;;;;;2.07;69.96;99891.53;5040311;28;20061;-71
2021/01/12 03:43:33;;;;;;;18.60;11.60;;;;;;;1.97;70.81;99890.53;5039541;28;20075;-72
2021/01/12 03:45:59;;;;;;;21.42;11.98;;;;;;;1.98;70.59;99881.84;5040261;28;20041;-72
2021/01/12 03:48:24;;;;;;;19.02;12.30;;;;;;;1.97;71.10;99880.13;5043144;28;20040;-72
2021/01/12 03:50:49;;;;;;;21.13;12.65;;;;;;;1.91;72.36;99885.19;5041561;28;20076;-72
2021/01/12 03:53:17;;;;;;;20.63;12.05;;;;;;;1.91;72.28;99880.88;5039287;28;20037;-71
2021/01/12 03:55:43;;;;;;;21.48;12.70;;;;;;;1.81;73.50;99876.34;5038354;28;20037;-72
2021/01/12 03:58:08;;;;;;;20.70;12.40;;;;;;;1.79;74.14;99880.66;5041898;28;20036;-72
2021/01/12 04:00:33;;;;;;;21.55;13.90;;;;;;;1.71;75.06;99875.28;5042840;28;20122;-72
2021/01/12 04:02:59;;;;;;;22.25;13.50;;;;;;;1.78;74.11;99867.59;5041027;28;20159;-71
2021/01/12 04:05:27;;;;;;;22.08;12.93;;;;;;;1.74;74.75;99862.34;5039503;28;20404;-72
2021/01/12 04:07:52;;;;;;;21.57;12.60;;;;;;;1.73;74.48;99864.94;5040186;28;20044;-72
2021/01/12 04:10:17;;;;;;;22.13;13.63;;;;;;;1.63;75.61;99856.06;5041662;28;20514;-71
2021/01/12 04:12:43;;;;;;;24.38;14.10;;;;;;;1.56;75.90;99862.00;5042549;28;20201;-72
2021/01/12 04:15:08;;;;;;;22.27;13.60;;;;;;;1.59;76.06;99856.84;5039928;28;20135;-72
2021/01/12 04:17:34;;;;;;;21.90;13.77;;;;;;;1.56;76.22;99851.59;5038192;28;20113;-72
2021/01/12 04:19:59;;;;;;;22.67;14.25;;;;;;;1.45;77.28;99863.50;5041139;28;20052;-70
2021/01/12 04:22:24;;;;;;;24.03;14.80;;;;;;;1.40;77.67;99854.75;5042431;28;20049;-72
2021/01/12 04:24:50;;;;;;;25.40;15.77;;;;;;;1.30;78.60;99859.75;5042180;28;20047;-71
2021/01/12 04:27:15;;;;;;;23.17;15.97;;;;;;;1.29;79.20;99859.72;5039266;28;20034;-72
2021/01/12 04:29:40;;;;;;;26.43;16.03;;;;;;;1.24;80.10;99845.75;5039352;28;20139;-72
2021/01/12 04:32:06;;;;;;;24.97;15.93;;;;;;;1.20;79.67;99851.72;5024350;28;20048;-72
2021/01/12 04:34:31;;;;;;;23.90;15.10;;;;;;;1.06;80.61;99841.06;5037754;28;20041;-71
2021/01/12 04:36:56;;;;;;;23.27;14.97;;;;;;;1.06;81.32;99841.06;5040547;28;20129;-71
2021/01/12 04:39:22;;;;;;;29.30;17.10;;;;;;;1.08;80.92;99831.56;5042398;28;20044;-70
2021/01/12 04:41:47;;;;;;;29.03;16.97;;;;;;;1.17;80.48;99821.34;5032337;28;20120;-71
2021/01/12 04:44:12;;;;;;;27.10;17.07;;;;;;;1.14;80.62;99826.50;5035640;28;20116;-71
2021/01/12 04:46:39;;;;;;;28.93;18.10;;;;;;;1.16;80.92;99827.41;5042497;28;20068;-71
2021/01/12 04:49:04;;;;;;;24.63;14.77;;;;;;;1.18;80.71;99823.13;5040685;28;20453;-71
2021/01/12 04:51:29;;;;;;;24.67;14.83;;;;;;;1.17;80.56;99802.28;5039131;28;20120;-71
2021/01/12 04:53:55;;;;;;;25.27;15.00;;;;;;;1.14;81.28;99810.03;5039779;28;20399;-71
2021/01/12 04:56:21;;;;;;;25.67;16.23;;;;;;;1.17;80.69;99816.16;5042543;28;20139;-71
2021/01/12 04:58:51;;;;;;;25.83;16.23;;;;;;;1.22;80.67;99793.72;5042517;28;20071;-71
2021/01/12 05:01:18;;;;;;;29.27;17.00;;;;;;;1.26;80.31;99802.47;5031448;28;20040;-70
2021/01/12 05:03:52;;;;;;;26.83;15.97;;;;;;;1.19;80.96;99790.22;5038644;28;20037;-71
2021/01/12 05:06:20;;;;;;;25.23;15.77;;;;;;;1.28;80.51;99788.66;5031540;28;20037;-71
2021/01/12 05:08:56;;;;;;;26.03;16.13;;;;;;;1.27;79.93;99792.09;5038860;28;20060;-71
2021/01/12 05:11:27;;;;;;;27.50;15.83;;;;;;;1.28;80.54;99777.38;5035273;28;20041;-71
2021/01/12 05:13:54;;;;;;;23.97;15.10;;;;;;;1.30;79.93;99779.16;5041715;28;20037;-71
2021/01/12 05:16:23;;;;;;;27.93;16.90;;;;;;;1.29;80.21;99774.81;5044670;28;20403;-69
2021/01/12 05:18:50;;;;;;;25.67;16.13;;;;;;;1.27;79.85;99768.69;5045856;28;20067;-69
2021/01/12 05:21:17;;;;;;;24.43;15.10;;;;;;;1.29;80.10;99763.53;5042416;28;20048;-68
2021/01/12 05:24:03;;;;;;;23.77;15.87;;;;;;;1.26;80.38;99760.91;5042080;28;20029;-69
2021/01/12 05:26:33;;;;;;;24.27;15.07;;;;;;;1.27;79.98;99760.91;5036581;28;20397;-69
2021/01/12 05:29:00;;;;;;;23.87;14.67;;;;;;;1.29;79.69;99750.53;5043845;28;20511;-69
2021/01/12 05:31:26;;;;;;;23.57;14.87;;;;;;;1.31;79.62;99752.31;5045609;28;20556;-68
2021/01/12 05:33:52;;;;;;;25.93;15.43;;;;;;;1.31;79.79;99752.31;5044616;28;20044;-69
2021/01/12 05:36:19;;;;;;;22.73;14.57;;;;;;;1.33;79.47;99725.47;5042072;28;20041;-69
2021/01/12 05:38:47;;;;;;;25.83;16.47;;;;;;;1.42;79.16;99741.25;5041942;28;20080;-70
2021/01/12 05:41:13;;;;;;;21.70;15.23;;;;;;;1.35;79.57;99736.78;5033897;28;20488;-69
2021/01/12 05:43:41;;;;;;;24.00;14.63;;;;;;;1.33;79.54;99722.88;5041685;28;20538;-69
2021/01/12 05:46:08;;;;;;;22.30;14.67;;;;;;;1.34;79.53;99720.31;5044638;28;20034;-69
2021/01/12 05:48:38;;;;;;;24.20;14.30;;;;;;;1.34;79.26;99719.41;5045389;28;20053;-69
2021/01/12 05:51:06;;;;;;;23.67;14.90;;;;;;;1.30;79.42;99716.75;5042994;28;20119;-69
2021/01/12 05:54:04;;;;;;;22.83;14.80;;;;;;;1.32;79.58;99709.00;5041543;28;20069;-69
2021/01/12 05:56:31;;;;;;;24.45;15.60;;;;;;;1.32;80.25;99714.19;5031929;28;20125;-69
2021/01/12 05:58:59;;;;;;;20.33;13.10;;;;;;;1.38;80.16;99703.03;5023437;28;20492;-68
2021/01/12 06:01:45;;;;;;;24.10;14.97;;;;;;;1.39;79.94;99694.38;5034875;28;20098;-68
2021/01/12 06:04:11;;;;;;;23.93;14.67;;;;;;;1.35;nan;99700.38;5037440;28;20041;-69
2021/01/12 06:06:39;;;;;;;21.40;13.77;;;;;;;1.38;79.77;99703.03;5045087;28;20044;-69
2021/01/12 06:09:08;;;;;;;21.53;14.27;;;;;;;1.34;79.87;99693.41;5042718;28;20511;-69
2021/01/12 06:11:35;;;;;;;21.60;13.63;;;;;;;1.40;79.43;99697.00;5041363;28;20052;-69
2021/01/12 06:14:15;;;;;;;22.37;13.50;;;;;;;1.40;79.91;99689.22;5042906;28;20045;-69
2021/01/12 06:16:43;;;;;;;19.80;13.17;;;;;;;1.42;79.55;99690.13;5044866;28;20028;-69
2021/01/12 06:19:13;;;;;;;18.33;12.73;;;;;;;1.43;79.60;99683.19;5041923;28;20038;-69
2021/01/12 06:21:54;;;;;;;22.20;14.35;;;;;;;1.40;79.41;99678.81;5040409;28;20123;-68
2021/01/12 06:24:48;;;;;;;19.07;12.30;;;;;;;1.42;79.57;99668.44;5027114;28;20029;-69
2021/01/12 06:27:16;;;;;;;21.53;13.60;;;;;;;1.46;79.72;99672.84;5032778;28;20491;-69
2021/01/12 06:29:43;;;;;;;20.03;12.73;;;;;;;1.51;78.93;99665.97;5034588;28;20033;-69
2021/01/12 06:32:09;;;;;;;20.03;13.30;;;;;;;1.51;79.25;99663.38;5041762;28;20518;-69
2021/01/12 06:34:34;;;;;;;19.10;12.17;;;;;;;1.46;79.55;99663.31;5034249;28;20033;-69
2021/01/12 06:37:04;;;;;;;18.73;12.35;;;;;;;1.52;79.34;99658.22;5042784;28;20033;-69
2021/01/12 06:39:43;;;;;;;17.77;11.83;;;;;;;1.47;79.08;99662.47;5044307;28;20044;-68
2021/01/12 06:42:10;;;;;;;17.67;11.30;;;;;;;1.49;79.62;99652.97;5041275;28;20033;-69
2021/01/12 06:44:38;;;;;;;17.37;11.87;;;;;;;1.51;79.80;99650.38;5039227;28;20067;-69
2021/01/12 06:47:05;;;;;;;17.50;11.93;;;;;;;1.48;79.22;99646.00;5036329;28;20511;-69
2021/01/12 06:49:31;;;;;;;20.13;11.87;;;;;;;1.53;79.13;99643.50;5044291;28;20094;-69
2021/01/12 06:52:04;;;;;;;18.63;11.07;;;;;;;1.56;79.22;99638.31;5041502;28;20490;-69
2021/01/12 06:54:34;;;;;;;18.07;11.40;;;;;;;1.52;79.46;99639.16;5040595;28;20068;-69
2021/01/12 06:57:05;;;;;;;21.07;12.97;;;;;;;1.54;79.35;99642.63;5042408;28;20037;-69
2021/01/12 06:59:53;;;;;;;17.53;11.17;;;;;;;1.53;79.18;99639.16;5044007;28;20045;-69
2021/01/12 07:02:25;;;;;;;18.70;13.20;;;;;;;1.53;79.80;99633.09;5032904;28;20491;-69
2021/01/12 07:05:06;;;;;;;17.27;10.85;;;;;;;1.48;79.85;99630.41;5040792;28;20484;-69
2021/01/12 07:07:36;;;;;;;17.50;11.13;;;;;;;1.40;80.36;99628.53;5043782;28;20439;-69
2021/01/12 07:10:05;;;;;;;17.97;10.90;;;;;;;1.44;80.39;99619.91;5041891;28;20047;-69
2021/01/12 07:12:31;;;;;;;19.33;12.30;;;;;;;1.40;80.78;99626.81;5039924;28;20040;-69
2021/01/12 07:15:02;;;;;;;19.80;11.50;;;;;;;1.38;80.74;99622.44;5041469;28;20041;-69
2021/01/12 07:17:33;;;;;;;14.60;10.20;;;;;;;1.39;80.87;99613.78;5043582;28;20052;-69
2021/01/12 07:20:07;;;;;;;16.87;11.20;;;;;;;1.38;80.77;99615.50;5042068;28;20102;-69
2021/01/12 07:22:34;;;;;;;15.13;9.87;;;;;;;1.45;80.29;99614.75;5040196;28;20350;-68
2021/01/12 07:25:02;;;;;;;16.27;10.27;;;;;;;1.39;81.00;99624.16;5041740;28;20044;-69
2021/01/12 07:27:28;;;;;;;14.03;9.50;;;;;;;1.38;81.02;99612.03;5043484;28;20037;-70
2021/01/12 07:29:54;;;;;;;15.03;10.33;;;;;;;1.45;80.99;99608.69;5042588;28;20103;-69
2021/01/12 07:32:31;;;;;;;14.07;9.17;;;;;;;1.44;81.18;99605.22;5037731;28;20555;-69
2021/01/12 07:35:00;;;;;;;16.20;10.20;;;;;;;1.35;81.49;99599.84;5039123;28;20069;-69
2021/01/12 07:37:31;;;;;;;14.53;9.67;;;;;;;1.41;81.34;99618.16;5041295;28;20518;-68
2021/01/12 07:39:56;;;;;;;13.43;8.93;;;;;;;1.33;81.22;99598.94;5033292;28;20068;-69
2021/01/12 07:42:22;;;;;;;14.17;9.33;;;;;;;1.35;81.80;99599.00;5025982;28;20029;-69
2021/01/12 07:44:47;;;;;;;13.97;8.87;;;;;;;1.35;82.09;99604.19;5029003;28;20092;-69
2021/01/12 07:47:13;;;;;;;13.50;9.30;;;;;;;1.38;81.74;99602.50;5032522;28;20597;-68
2021/01/12 07:49:39;;;;;;;17.83;11.10;;;;;;;1.44;82.88;99596.53;5032869;28;20029;-69
2021/01/12 07:52:05;;;;;;;18.57;11.60;;;;;;;1.47;82.24;99597.47;5038806;28;20151;-68
2021/01/12 07:54:33;;;;;;;16.57;10.00;;;;;;;1.48;82.01;99598.34;5042973;28;20123;-68
2021/01/12 07:56:59;;;;;;;11.23;7.47;;;;;;;1.43;81.68;99580.06;5041588;28;20064;-69
2021/01/12 07:59:25;;;;;;;14.23;9.03;;;;;;;1.50;81.73;99591.44;5039633;28;20069;-69
2021/01/12 08:01:51;;;;;;;11.90;7.60;;;;;;;1.58;81.59;99588.94;5040039;28;20129;-70
2021/01/12 08:04:16;;;;;;;12.57;8.17;;;;;;;1.59;81.46;99585.50;5029823;28;20120;-69
2021/01/12 08:06:46;;;;;;;11.85;7.55;;;;;;;1.59;81.24;99580.28;5031003;28;20458;-68
2021/01/12 08:09:20;;;;;;;11.30;7.23;;;;;;;1.52;81.40;99576.75;5037732;28;20669;-70
2021/01/12 08:11:47;;;;;;;13.13;7.40;;;;;;;1.61;81.31;99573.38;5030229;28;20037;-68
2021/01/12 08:14:12;;;;;;;10.25;7.35;;;;;;;1.68;80.86;99576.09;5032416;28;20045;-69
2021/01/12 08:16:39;;;;;;;12.35;7.57;;;;;;;1.71;80.83;99573.53;5040812;28;20041;-69
2021/01/12 08:19:04;;;;;;;11.07;7.40;;;;;;;1.67;81.03;99571.72;5038400;28;20032;-69
2021/01/12 08:21:40;;;;;;;9.48;6.35;;;;;;;1.58;80.77;99569.00;5038482;28;20033;-69
2021/01/12 08:24:07;;;;;;;8.90;6.40;;;;;;;1.60;81.34;99577.72;5042070;28;20052;-70
2021/01/12 08:26:33;;;;;;;10.63;6.23;;;;;;;1.47;82.05;99565.41;5044715;28;20037;-69
2021/01/12 08:28:58;;;;;;;11.10;6.87;;;;;;;1.46;81.33;99559.28;5040861;28;20399;-69
2021/01/12 08:31:23;;;;;;;8.67;5.97;;;;;;;1.45;81.91;99570.56;5042686;28;20069;-69
2021/01/12 08:33:51;;;;;;;9.27;5.70;;;;;;;1.37;82.50;99558.31;5041899;28;20041;-68
2021/01/12 08:36:18;;;;;;;9.90;6.70;;;;;;;1.31;82.68;99559.09;5039245;28;20041;-69
2021/01/12 08:38:48;;;;;;;11.75;7.13;;;;;;;1.27;82.85;99552.94;5039084;28;20224;-69
2021/01/12 08:41:14;;;;;;;9.93;6.17;;;;;;;1.27;83.29;99557.28;5031208;28;20041;-68
2021/01/12 08:43:41;;;;;;;11.10;7.30;;;;;;;1.26;83.03;99556.41;5038722;28;20528;-69
2021/01/12 08:46:07;;;;;;;9.97;6.00;;;;;;;1.30;82.51;99542.59;5044562;28;20120;-70
2021/01/12 08:48:32;;;;;;;9.33;5.43;;;;;;;1.32;82.70;99545.22;5046384;28;20174;-69
2021/01/12 08:50:58;;;;;;;9.73;5.67;;;;;;;1.29;83.46;99543.44;5045052;28;20462;-69
2021/01/12 08:53:28;;;;;;;11.33;5.97;;;;;;;1.31;82.60;99538.28;5042602;28;20549;-69
2021/01/12 08:56:06;;;;;;;8.97;5.60;;;;;;;1.29;83.11;99540.84;5043692;28;20049;-69
2021/01/12 08:58:31;;;;;;;8.60;4.90;;;;;;;1.31;82.75;99539.16;5046291;28;20168;-68
2021/01/12 09:00:59;;;;;;;8.37;5.43;;;;;;;1.31;83.23;99535.69;5045024;28;20120;-69
2021/01/12 09:03:25;;;;;;;9.03;4.80;;;;;;;1.34;82.95;99532.22;5042566;28;20090;-69
2021/01/12 09:05:53;;;;;;;8.17;5.17;;;;;;;1.29;83.63;99534.78;5043172;28;20033;-69
2021/01/12 09:08:20;;;;;;;8.63;5.43;;;;;;;1.28;83.36;99526.13;5046168;28;20175;-68
2021/01/12 09:10:46;;;;;;;8.03;5.17;;;;;;;1.29;83.84;99520.06;5046166;28;20037;-68
2021/01/12 09:13:12;;;;;;;9.17;5.57;;;;;;;1.37;83.06;99529.69;5042394;28;20049;-69
2021/01/12 09:15:40;;;;;;;9.37;5.57;;;;;;;1.45;82.73;99515.09;5042541;28;20400;-69
2021/01/12 09:18:20;;;;;;;9.00;5.60;;;;;;;1.35;83.13;99521.00;5044924;28;20122;-69
2021/01/12 09:21:12;;;;;;;8.07;5.03;;;;;;;1.37;83.39;99521.91;5044823;28;20041;-69
2021/01/12 09:23:37;;;;;;;8.73;4.78;;;;;;;1.43;83.44;99516.78;5036163;28;20049;-69
2021/01/12 09:26:04;;;;;;;9.23;5.27;;;;;;;1.40;83.20;99519.34;5044559;28;20033;-69
2021/01/12 09:28:31;;;;;;;8.47;4.77;;;;;;;1.47;83.54;99516.00;5045682;28;20376;-69
2021/01/12 09:31:11;;;;;;;8.37;4.83;;;;;;;1.48;83.46;99509.91;5044462;28;20037;-69
2021/01/12 09:33:40;;;;;;;9.27;5.00;;;;;;;1.47;83.35;99503.84;5041954;28;20124;-69
2021/01/12 09:36:07;;;;;;;6.40;4.07;;;;;;;1.47;83.04;99503.00;5044620;28;20044;-69
2021/01/12 09:38:44;;;;;;;7.90;4.03;;;;;;;1.56;83.05;99492.69;5045454;28;20036;-68
2021/01/12 09:41:11;;;;;;;6.37;4.00;;;;;;;1.58;83.10;99496.19;5042590;28;20539;-69
2021/01/12 09:43:38;;;;;;;7.87;4.17;;;;;;;1.58;83.22;99495.31;5041848;28;20045;-69
2021/01/12 09:46:04;;;;;;;5.97;3.80;;;;;;;1.64;83.22;99490.19;5044221;28;20033;-69
2021/01/12 09:48:29;;;;;;;8.70;4.20;;;;;;;1.69;82.84;99484.19;5045352;28;20041;-68
2021/01/12 09:50:54;;;;;;;7.95;4.30;;;;;;;1.74;82.54;99482.53;5038975;28;20428;-70
2021/01/12 09:53:20;;;;;;;5.97;3.33;;;;;;;1.81;82.50;99482.59;5034691;28;20083;-70
2021/01/12 09:55:45;;;;;;;6.10;3.50;;;;;;;1.82;82.36;99477.41;5035847;28;20033;-69
2021/01/12 09:58:11;;;;;;;5.97;3.60;;;;;;;1.82;82.74;99476.56;5033936;28;20038;-69
2021/01/12 10:00:36;;;;;;;4.93;2.90;;;;;;;1.86;82.32;99475.72;5034059;28;20162;-69
2021/01/12 10:03:03;;;;;;;5.53;3.38;;;;;;;1.91;82.44;99474.03;5040537;28;20454;-68
2021/01/12 10:05:28;;;;;;;4.60;2.80;;;;;;;1.97;82.27;99466.34;5037697;28;20029;-69
2021/01/12 10:07:54;;;;;;;4.97;2.90;;;;;;;1.98;82.00;99465.47;5033484;28;20041;-69
2021/01/12 10:10:19;;;;;;;4.25;2.60;;;;;;;1.98;81.93;99466.31;5032669;28;20116;-69
2021/01/12 10:12:44;;;;;;;5.30;3.15;;;;;;;2.06;81.49;99461.22;5034252;28;20093;-68
2021/01/12 10:15:10;;;;;;;4.35;2.78;;;;;;;2.04;81.93;99464.66;5034409;28;20075;-69
2021/01/12 10:17:35;;;;;;;7.15;2.85;;;;;;;2.06;81.44;99461.22;5034599;28;20484;-69
2021/01/12 10:20:00;;;;;;;4.40;2.60;;;;;;;2.03;81.68;99450.78;5043106;28;20098;-69
2021/01/12 10:22:26;;;;;;;5.40;2.70;;;;;;;2.06;82.07;99448.19;5044591;28;20033;-68
2021/01/12 10:24:52;;;;;;;4.75;2.72;;;;;;;2.15;81.78;99444.84;5044165;28;20443;-68
2021/01/12 10:27:19;;;;;;;4.07;2.07;;;;;;;2.22;81.45;99438.81;5041312;28;20083;-69
2021/01/12 10:29:44;;;;;;;3.72;2.03;;;;;;;2.17;81.15;99441.41;5041176;28;20045;-68
2021/01/12 10:32:12;;;;;;;4.78;2.55;;;;;;;2.11;81.70;99427.44;5044371;28;20384;-68
2021/01/12 10:34:38;;;;;;;4.85;3.20;;;;;;;2.18;81.53;99434.47;5036271;28;20183;-68
2021/01/12 10:37:04;;;;;;;4.40;2.35;;;;;;;2.24;81.15;99431.03;5043328;28;20092;-69
2021/01/12 10:39:29;;;;;;;4.47;2.22;;;;;;;2.17;81.11;99428.38;5044476;28;20470;-69
2021/01/12 10:41:55;;;;;;;4.68;2.47;;;;;;;2.10;81.54;99421.38;5043336;28;20075;-68
2021/01/12 10:44:20;;;;;;;4.25;2.28;;;;;;;2.17;81.62;99420.56;5040704;28;20032;-69
2021/01/12 10:46:47;;;;;;;3.35;2.10;;;;;;;2.11;81.98;99412.69;5040862;28;20079;-69
2021/01/12 10:49:12;;;;;;;4.82;2.17;;;;;;;2.26;81.01;99409.38;5044141;28;20051;-69
2021/01/12 10:51:37;;;;;;;3.60;1.98;;;;;;;2.23;81.22;99413.66;5044104;28;20123;-69
2021/01/12 10:54:03;;;;;;;3.47;1.95;;;;;;;2.21;81.11;99405.84;5041585;28;20033;-68
2021/01/12 10:56:28;;;;;;;4.55;2.10;;;;;;;2.26;81.34;99411.09;5040642;28;20033;-69
2021/01/12 10:58:54;;;;;;;4.07;2.03;;;;;;;2.34;81.06;99399.88;5041304;28;20056;-69
2021/01/12 11:01:21;;;;;;;4.30;2.38;;;;;;;2.38;80.76;99398.16;5043954;28;20517;-68
2021/01/12 11:03:46;;;;;;;3.50;2.03;;;;;;;2.31;80.66;99386.84;5043463;28;20400;-69
2021/01/12 11:06:11;;;;;;;4.03;2.00;;;;;;;2.38;80.69;99377.34;5044058;28;20033;-69
2021/01/12 11:08:37;;;;;;;3.50;1.80;;;;;;;2.42;80.32;99384.34;5053716;28;20406;-70
2021/01/12 11:11:03;;;;;;;3.90;1.80;;;;;;;2.48;80.15;99376.56;5042388;28;20055;-69
2021/01/12 11:13:28;;;;;;;3.33;1.63;;;;;;;2.49;79.61;99375.72;5040033;28;20492;-69
2021/01/12 11:15:57;;;;;;;2.88;1.65;;;;;;;2.49;79.85;99378.31;5040975;28;20102;-69
2021/01/12 11:18:23;;;;;;;3.20;1.63;;;;;;;2.50;79.70;99367.03;5043766;28;20134;-69
2021/01/12 11:20:48;;;;;;;3.38;1.65;;;;;;;2.54;80.09;99363.59;5043526;28;20060;-69
2021/01/12 11:23:14;;;;;;;2.30;1.13;;;;;;;2.54;79.55;99354.91;5039940;28;20068;-68
2021/01/12 11:25:40;;;;;;;3.67;1.92;;;;;;;2.52;79.99;99349.69;5039155;28;20447;-69
2021/01/12 11:28:05;;;;;;;5.63;2.78;;;;;;;2.57;79.76;99345.38;5042400;28;20484;-69
2021/01/12 11:30:30;;;;;;;2.50;1.40;;;;;;;2.59;79.01;99361.91;5043462;28;20491;-68